createdAt,value
2018-08-04T00:04:29.375Z,6.85
2018-08-04T00:06:59.587Z,6.20
2018-08-04T00:09:28.710Z,5.72
2018-08-04T00:11:58.588Z,6.32
2018-08-04T00:14:35.341Z,6.72
2018-08-04T00:17:06.063Z,7.35
2018-08-04T00:19:35.640Z,6.90
2018-08-04T00:22:12.069Z,6.40
2018-08-04T00:24:44.804Z,5.93
2018-08-04T00:32:49.980Z,5.57
2018-08-04T00:35:19.580Z,5.78
2018-08-04T00:37:56.697Z,5.87
2018-08-04T00:40:26.399Z,5.93
2018-08-04T00:43:12.943Z,6.53
2018-08-04T00:48:29.227Z,6.32
2018-08-04T00:51:05.864Z,6.10
2018-08-04T00:53:38.762Z,5.70
2018-08-04T00:56:15.378Z,6.05
2018-08-04T00:58:52.155Z,6.45
2018-08-04T01:06:57.066Z,6.10
2018-08-04T01:09:27.738Z,5.95
2018-08-04T01:11:57.551Z,6.28
2018-08-04T01:14:30.073Z,6.05
2018-08-04T01:17:06.663Z,5.65
2018-08-04T01:25:10.704Z,6.03
2018-08-04T01:27:47.334Z,5.28
2018-08-04T01:33:04.767Z,5.43
2018-08-04T01:35:34.749Z,6.12
2018-08-04T01:38:19.112Z,5.72
2018-08-04T01:40:51.699Z,5.10
2018-08-04T01:43:21.465Z,6.03
2018-08-04T01:45:52.361Z,5.03
2018-08-04T01:48:22.074Z,6.10
2018-08-04T01:50:59.162Z,5.37
2018-08-04T01:56:16.302Z,5.20
2018-08-04T01:58:46.080Z,6.12
2018-08-04T02:01:15.685Z,5.50
2018-08-04T02:03:46.428Z,5.80
2018-08-04T02:06:22.866Z,5.35
2018-08-04T02:08:58.246Z,5.60
2018-08-04T02:11:29.189Z,6.00
2018-08-04T02:13:58.937Z,6.40
2018-08-04T02:16:35.686Z,6.07
2018-08-04T02:19:04.483Z,5.78
2018-08-04T02:21:34.070Z,4.97
2018-08-04T02:26:58.024Z,5.40
2018-08-04T02:29:30.955Z,5.60
2018-08-04T02:32:00.641Z,5.93
2018-08-04T02:37:32.561Z,5.68
2018-08-04T02:40:03.405Z,6.40
2018-08-04T02:42:36.221Z,6.35
2018-08-04T02:45:05.078Z,6.80
2018-08-04T02:47:37.506Z,7.30
2018-08-04T02:50:08.281Z,6.68
2018-08-04T02:52:39.224Z,6.50
2018-08-04T03:00:50.949Z,7.28
2018-08-04T03:03:35.798Z,7.05
2018-08-04T03:06:12.275Z,7.12
2018-08-04T03:08:42.164Z,7.45
2018-08-04T03:11:11.444Z,7.22
2018-08-04T03:16:43.456Z,6.50
2018-08-04T03:19:12.492Z,7.60
2018-08-04T03:21:41.594Z,8.35
2018-08-04T03:26:58.221Z,8.48
2018-08-04T03:32:15.518Z,7.43
2018-08-04T03:34:45.433Z,8.55
2018-08-04T03:37:18.258Z,8.50
2018-08-04T03:39:48.128Z,8.35
2018-08-04T03:42:17.340Z,8.15
2018-08-04T03:44:46.597Z,8.50
2018-08-04T03:47:16.165Z,8.43
2018-08-04T03:55:21.182Z,8.60
2018-08-04T03:57:50.944Z,8.70
2018-08-04T04:00:35.368Z,9.30
2018-08-04T04:03:04.964Z,9.38
2018-08-04T04:05:34.837Z,9.82
2018-08-04T04:10:52.169Z,8.90
2018-08-04T04:13:22.851Z,10.38
2018-08-04T04:15:52.744Z,9.30
2018-08-04T04:18:29.351Z,9.93
2018-08-04T04:20:59.090Z,9.35
2018-08-04T04:23:29.641Z,9.27
2018-08-04T04:26:00.327Z,9.10
2018-08-04T04:28:29.086Z,9.23
2018-08-04T04:30:59.049Z,9.30
2018-08-04T04:33:28.678Z,9.05
2018-08-04T04:35:58.444Z,8.90
2018-08-04T04:38:28.120Z,8.88
2018-08-04T04:40:57.732Z,9.13
2018-08-04T04:43:34.385Z,9.38
2018-08-04T04:46:04.173Z,9.30
2018-08-04T04:48:33.974Z,8.43
2018-08-04T04:51:10.319Z,9.70
2018-08-04T04:53:40.042Z,9.13
2018-08-04T04:56:10.765Z,9.70
2018-08-04T05:01:27.156Z,9.80
2018-08-04T05:04:03.795Z,10.10
2018-08-04T05:06:33.557Z,10.32
2018-08-04T05:09:02.232Z,10.07
2018-08-04T05:11:31.926Z,9.85
2018-08-04T05:14:04.731Z,8.68
2018-08-04T05:16:34.413Z,8.00
2018-08-04T05:19:04.049Z,8.85
2018-08-04T05:21:33.083Z,8.27
2018-08-04T05:24:02.920Z,8.65
2018-08-04T05:26:32.548Z,8.30
2018-08-04T05:29:01.594Z,8.02
2018-08-04T05:31:32.218Z,8.73
2018-08-04T05:42:24.055Z,5.55
2018-08-04T05:44:52.696Z,6.30
2018-08-04T05:47:29.580Z,6.12
2018-08-04T05:49:59.213Z,7.80
2018-08-04T05:52:27.973Z,6.10
2018-08-04T05:54:58.909Z,5.93
2018-08-04T05:57:27.958Z,5.68
2018-08-04T05:59:57.599Z,5.22
2018-08-04T06:02:27.995Z,5.37
2018-08-04T06:07:44.337Z,4.80
2018-08-04T06:10:20.971Z,5.15
2018-08-04T06:18:26.999Z,4.65
2018-08-04T06:20:56.673Z,4.57
2018-08-04T06:23:26.482Z,4.43
2018-08-04T06:28:47.547Z,4.80
2018-08-04T06:31:16.489Z,4.87
2018-08-04T06:33:48.333Z,4.70
2018-08-04T06:36:17.299Z,4.37
2018-08-04T06:38:45.967Z,4.30
2018-08-04T06:41:18.749Z,5.07
2018-08-04T06:43:55.199Z,4.87
2018-08-04T06:49:11.588Z,4.62
2018-08-04T06:51:40.367Z,4.97
2018-08-04T06:54:10.147Z,4.30
2018-08-04T06:56:39.831Z,4.37
2018-08-04T07:02:03.867Z,4.43
2018-08-04T07:04:33.522Z,4.28
2018-08-04T07:07:03.428Z,4.10
2018-08-04T07:09:33.127Z,4.10
2018-08-04T07:12:02.736Z,4.28
2018-08-04T07:14:33.691Z,3.97
2018-08-04T07:22:38.093Z,5.60
2018-08-04T07:25:14.691Z,5.57
2018-08-04T07:27:44.515Z,5.57
2018-08-04T08:12:19.690Z,6.40
2018-08-04T08:14:49.837Z,5.50
2018-08-04T08:39:51.067Z,5.65
2018-08-04T08:42:20.202Z,6.22
2018-08-04T08:44:52.214Z,5.93
2018-08-04T09:52:20.978Z,6.60
2018-08-04T11:05:09.647Z,6.12
2018-08-04T11:16:17.903Z,12.05
2018-08-04T11:46:57.636Z,5.30
2018-08-04T11:55:06.819Z,5.60
2018-08-04T11:57:39.719Z,6.05
2018-08-04T12:25:44.461Z,5.93
2018-08-04T12:28:14.601Z,5.82
2018-08-04T12:30:43.594Z,6.37
2018-08-04T12:36:05.901Z,5.75
2018-08-04T12:38:35.370Z,6.30
2018-08-04T12:41:04.876Z,6.53
2018-08-04T12:43:34.405Z,6.60
2018-08-04T12:46:03.803Z,6.35
2018-08-04T13:02:40.349Z,6.80
2018-08-04T13:05:09.351Z,6.75
2018-08-04T13:07:40.272Z,5.70
2018-08-04T13:18:32.965Z,6.00
2018-08-04T13:26:42.141Z,7.12
2018-08-04T13:29:11.339Z,8.98
2018-08-04T13:34:46.840Z,7.45
2018-08-04T14:08:17.676Z,5.20
2018-08-04T14:10:51.067Z,5.57
2018-08-04T14:13:23.057Z,5.50
2018-08-04T14:24:24.058Z,6.28
2018-08-04T14:26:54.895Z,5.60
2018-08-04T14:29:26.517Z,5.70
2018-08-04T14:43:12.154Z,4.60
2018-08-04T15:22:07.318Z,4.45
2018-08-04T15:24:42.622Z,4.37
2018-08-04T15:27:27.098Z,3.78
2018-08-04T15:30:15.174Z,3.97
2018-08-04T15:32:53.504Z,4.15
2018-08-04T15:49:28.897Z,4.10
2018-08-04T15:52:04.289Z,3.60
2018-08-04T15:54:38.893Z,4.20
2018-08-04T16:58:45.833Z,4.40
2018-08-04T17:01:16.252Z,4.07
2018-08-04T17:03:44.951Z,3.87
2018-08-04T17:06:14.852Z,4.53
2018-08-04T17:08:46.633Z,4.45
2018-08-04T17:11:19.272Z,4.03
2018-08-04T17:13:49.476Z,4.05
2018-08-04T17:16:18.576Z,3.37
2018-08-04T17:18:47.684Z,3.37
2018-08-04T17:21:16.345Z,3.78
2018-08-04T17:23:44.978Z,3.80
2018-08-04T17:29:31.702Z,3.92
2018-08-04T17:32:00.716Z,4.20
2018-08-04T17:34:29.629Z,5.05
2018-08-04T17:36:59.462Z,4.20
2018-08-04T17:39:28.409Z,3.80
2018-08-04T17:41:57.426Z,3.25
2018-08-04T17:44:26.077Z,4.00
2018-08-04T17:46:54.772Z,3.50
2018-08-04T17:49:23.428Z,3.67
2018-08-04T17:52:00.121Z,3.83
2018-08-04T17:54:28.737Z,4.18
2018-08-04T17:56:57.412Z,3.97
2018-08-04T18:07:51.519Z,4.00
2018-08-04T18:10:20.169Z,4.10
2018-08-04T18:12:48.818Z,4.57
2018-08-04T18:18:05.029Z,3.60
2018-08-04T18:26:16.558Z,4.10
2018-08-04T18:31:40.454Z,3.80
2018-08-04T18:34:10.061Z,3.78
2018-08-04T18:53:31.888Z,3.75
2018-08-04T18:56:15.085Z,3.97
2018-08-04T19:01:42.035Z,4.05
2018-08-04T19:04:11.421Z,4.30
2018-08-04T19:06:41.076Z,4.20
2018-08-04T19:09:10.668Z,4.25
2018-08-04T19:11:41.944Z,4.10
2018-08-04T19:19:53.537Z,3.83
2018-08-04T19:22:22.242Z,3.42
2018-08-04T19:30:27.035Z,3.78
2018-08-04T19:38:32.776Z,3.70
2018-08-04T19:41:01.462Z,3.70
2018-08-04T19:52:00.599Z,3.70
2018-08-04T20:00:12.022Z,3.55
2018-08-04T20:19:41.709Z,3.65
2018-08-04T20:22:10.377Z,3.58
2018-08-04T20:24:39.011Z,3.87
2018-08-04T20:52:20.881Z,3.00
2018-08-04T20:54:50.431Z,3.33
2018-08-04T20:57:19.987Z,2.90
2018-08-04T21:05:26.699Z,3.00
2018-08-04T21:16:19.648Z,3.12
2018-08-04T21:21:40.445Z,3.40
2018-08-04T21:24:16.803Z,2.87
2018-08-04T21:32:20.652Z,3.20
2018-08-04T21:46:07.261Z,3.30
2018-08-04T21:48:36.339Z,3.28
2018-08-04T21:51:15.701Z,3.15
2018-08-04T21:53:45.294Z,3.20
2018-08-04T22:04:37.405Z,2.83
2018-08-04T22:07:22.100Z,2.90
2018-08-04T22:12:39.214Z,2.72
2018-08-04T22:15:08.696Z,2.40
2018-08-04T22:23:16.029Z,3.03
2018-08-04T22:25:56.023Z,2.78
2018-08-04T22:39:36.769Z,2.85
2018-08-04T22:50:29.230Z,2.60
2018-08-04T22:55:45.768Z,2.65
2018-08-04T23:37:29.183Z,3.22
2018-08-04T23:45:41.026Z,3.00
2018-08-04T23:50:57.195Z,2.83
2018-08-04T23:53:27.560Z,2.87
2018-08-04T23:55:56.561Z,3.05
2018-08-04T23:58:29.188Z,2.67
